createdAt,value
2023-04-16T00:01:36.108Z,10.85
2023-04-16T00:04:03.104Z,12.95
2023-04-16T00:06:30.452Z,10.70
2023-04-16T00:08:57.349Z,10.13
2023-04-16T00:11:24.457Z,9.32
2023-04-16T00:13:51.329Z,10.45
2023-04-16T00:16:18.161Z,8.27
2023-04-16T00:18:45.140Z,10.18
2023-04-16T00:21:12.173Z,9.35
2023-04-16T00:23:39.055Z,12.40
2023-04-16T00:26:05.970Z,4.93
2023-04-16T00:28:32.801Z,6.68
2023-04-16T00:31:01.558Z,7.18
2023-04-16T00:33:30.179Z,8.05
2023-04-16T00:35:57.149Z,5.25
2023-04-16T00:38:24.145Z,6.22
2023-04-16T00:40:51.274Z,9.90
2023-04-16T00:43:23.168Z,7.85
2023-04-16T00:45:50.853Z,6.75
2023-04-16T00:48:17.959Z,10.52
2023-04-16T00:50:44.803Z,7.80
2023-04-16T00:53:11.846Z,6.85
2023-04-16T00:55:39.821Z,6.18
2023-04-16T00:58:07.197Z,7.43
2023-04-16T01:00:34.090Z,10.85
2023-04-16T01:03:01.006Z,8.60
2023-04-16T01:05:28.034Z,8.55
2023-04-16T01:07:59.742Z,9.65
2023-04-16T01:10:26.572Z,11.38
2023-04-16T01:12:53.416Z,10.82
2023-04-16T01:15:20.269Z,7.70
2023-04-16T01:17:47.388Z,5.47
2023-04-16T01:20:14.640Z,9.10
2023-04-16T01:22:41.454Z,12.05
2023-04-16T01:25:08.464Z,5.70
2023-04-16T01:27:35.574Z,9.88
2023-04-16T01:30:02.530Z,6.63
2023-04-16T01:32:32.293Z,9.48
2023-04-16T01:34:59.228Z,7.43
2023-04-16T01:37:26.027Z,8.38
2023-04-16T01:39:52.970Z,9.95
2023-04-16T01:42:19.811Z,6.45
2023-04-16T01:44:47.648Z,6.15
2023-04-16T01:47:14.748Z,12.52
2023-04-16T01:49:42.591Z,5.57
2023-04-16T01:52:09.367Z,7.03
2023-04-16T01:54:37.270Z,5.00
2023-04-16T01:57:04.179Z,6.47
2023-04-16T01:59:33.040Z,7.75
2023-04-16T02:02:11.598Z,9.20
2023-04-16T02:04:40.802Z,6.35
2023-04-16T02:07:08.452Z,8.50
2023-04-16T02:09:37.209Z,6.53
2023-04-16T02:12:04.463Z,5.10
2023-04-16T02:14:32.077Z,8.05
2023-04-16T02:16:59.504Z,4.85
2023-04-16T02:19:26.497Z,5.60
2023-04-16T02:21:54.269Z,6.55
2023-04-16T02:24:21.415Z,10.25
2023-04-16T02:26:48.496Z,10.43
2023-04-16T02:29:16.646Z,7.65
2023-04-16T02:31:44.535Z,8.82
2023-04-16T02:34:11.595Z,9.82
2023-04-16T02:36:39.157Z,12.93
2023-04-16T02:39:06.485Z,11.65
2023-04-16T02:41:33.472Z,8.68
2023-04-16T02:44:00.286Z,7.18
2023-04-16T02:46:27.245Z,11.50
2023-04-16T02:48:54.087Z,12.05
2023-04-16T02:51:21.734Z,14.63
2023-04-16T02:53:48.893Z,12.13
2023-04-16T02:56:16.116Z,9.55
2023-04-16T02:58:43.329Z,12.10
2023-04-16T03:01:10.924Z,10.98
2023-04-16T03:03:37.791Z,11.80
2023-04-16T03:06:04.800Z,10.20
2023-04-16T03:08:31.642Z,17.13
2023-04-16T03:10:58.460Z,9.80
2023-04-16T03:13:25.368Z,12.57
2023-04-16T03:15:52.283Z,15.90
2023-04-16T03:18:19.198Z,11.38
2023-04-16T03:20:46.105Z,16.25
2023-04-16T03:23:13.109Z,12.00
2023-04-16T03:25:40.716Z,11.10
2023-04-16T03:28:07.917Z,15.93
2023-04-16T03:30:34.905Z,13.60
2023-04-16T03:33:01.813Z,12.50
2023-04-16T03:35:28.816Z,8.90
2023-04-16T03:37:55.572Z,11.43
2023-04-16T03:40:22.470Z,16.73
2023-04-16T03:42:49.302Z,13.85
2023-04-16T03:45:16.607Z,17.95
2023-04-16T03:47:43.495Z,9.02
2023-04-16T03:50:11.739Z,10.98
2023-04-16T03:52:38.615Z,11.27
2023-04-16T03:55:06.097Z,11.43
2023-04-16T03:57:32.896Z,10.43
2023-04-16T03:59:59.666Z,10.15
2023-04-16T04:02:27.383Z,12.40
2023-04-16T04:04:54.830Z,10.82
2023-04-16T04:07:21.639Z,11.52
2023-04-16T04:09:48.489Z,7.07
2023-04-16T04:12:15.351Z,10.88
2023-04-16T04:14:42.172Z,8.30
2023-04-16T04:17:09.380Z,7.03
2023-04-16T04:19:37.811Z,11.85
2023-04-16T04:22:07.122Z,7.43
2023-04-16T04:24:33.901Z,10.68
2023-04-16T04:27:02.118Z,9.68
2023-04-16T04:29:29.129Z,12.88
2023-04-16T04:31:56.015Z,10.27
2023-04-16T04:34:22.900Z,8.95
2023-04-16T04:36:49.728Z,6.60
2023-04-16T04:39:16.773Z,9.43
2023-04-16T04:41:43.995Z,13.32
2023-04-16T04:44:10.846Z,11.25
2023-04-16T04:46:38.056Z,17.60
2023-04-16T04:49:04.982Z,9.90
2023-04-16T04:51:31.938Z,13.95
2023-04-16T04:53:59.050Z,11.02
2023-04-16T04:56:25.851Z,9.98
2023-04-16T04:58:52.672Z,10.77
2023-04-16T05:01:19.550Z,9.05
2023-04-16T05:03:46.502Z,8.23
2023-04-16T05:06:13.387Z,9.52
2023-04-16T05:08:40.379Z,10.73
2023-04-16T05:11:07.263Z,8.82
2023-04-16T05:13:34.065Z,10.65
2023-04-16T05:16:01.074Z,9.98
2023-04-16T05:18:27.865Z,9.95
2023-04-16T05:20:54.779Z,8.20
2023-04-16T05:23:21.620Z,13.43
2023-04-16T05:25:48.424Z,12.65
2023-04-16T05:28:15.478Z,13.60
2023-04-16T05:30:42.300Z,9.25
2023-04-16T05:33:09.065Z,12.82
2023-04-16T05:35:36.101Z,9.75
2023-04-16T05:38:04.423Z,10.90
2023-04-16T05:40:32.042Z,11.82
2023-04-16T05:42:58.883Z,10.05
2023-04-16T05:45:27.449Z,13.70
2023-04-16T05:47:54.991Z,13.40
2023-04-16T05:50:22.003Z,15.75
2023-04-16T05:52:48.941Z,13.38
2023-04-16T05:55:15.778Z,19.10
2023-04-16T05:57:42.588Z,17.15
2023-04-16T06:00:09.727Z,12.93
2023-04-16T06:02:36.821Z,12.45
2023-04-16T06:05:03.912Z,11.23
2023-04-16T06:07:30.692Z,15.70
2023-04-16T06:09:57.618Z,11.80
2023-04-16T06:12:24.578Z,13.38
2023-04-16T06:14:51.535Z,16.42
2023-04-16T06:17:19.448Z,13.95
2023-04-16T06:19:46.326Z,12.45
2023-04-16T06:22:14.246Z,19.88
2023-04-16T06:24:41.117Z,18.60
2023-04-16T06:27:07.900Z,14.88
2023-04-16T06:29:41.070Z,14.45
2023-04-16T06:32:09.153Z,14.95
2023-04-16T06:34:36.191Z,22.00
2023-04-16T06:37:03.380Z,25.38
2023-04-16T06:39:30.987Z,14.02
2023-04-16T06:41:57.876Z,19.65
2023-04-16T06:44:24.720Z,19.40
2023-04-16T06:46:51.691Z,18.65
2023-04-16T06:49:18.525Z,17.90
2023-04-16T06:51:45.875Z,17.20
2023-04-16T06:54:13.066Z,26.13
2023-04-16T06:56:39.871Z,18.85
2023-04-16T06:59:08.191Z,23.13
2023-04-16T07:01:35.307Z,20.45
2023-04-16T07:04:02.453Z,21.02
2023-04-16T07:06:29.457Z,19.42
2023-04-16T07:08:56.269Z,22.67
2023-04-16T07:11:23.237Z,17.83
2023-04-16T07:13:51.282Z,24.20
2023-04-16T07:16:18.398Z,21.55
2023-04-16T07:18:45.274Z,29.30
2023-04-16T07:21:12.168Z,29.98
2023-04-16T07:23:38.998Z,24.80
2023-04-16T07:26:05.985Z,24.75
2023-04-16T07:28:32.780Z,24.98
2023-04-16T07:30:59.841Z,29.92
2023-04-16T07:33:27.381Z,25.95
2023-04-16T07:35:54.252Z,36.22
2023-04-16T07:38:21.198Z,27.70
2023-04-16T07:40:48.071Z,31.83
2023-04-16T07:43:16.385Z,35.08
2023-04-16T07:45:43.467Z,26.13
2023-04-16T07:48:10.380Z,26.55
2023-04-16T07:50:37.355Z,30.48
2023-04-16T07:53:05.919Z,27.98
2023-04-16T07:55:32.756Z,37.00
2023-04-16T07:57:59.622Z,49.35
2023-04-16T08:00:26.624Z,29.73
2023-04-16T08:02:53.646Z,26.75
2023-04-16T08:05:20.849Z,31.02
2023-04-16T08:07:47.789Z,32.85
2023-04-16T08:10:14.573Z,34.20
2023-04-16T08:12:42.599Z,32.05
2023-04-16T08:15:09.850Z,29.48
2023-04-16T08:17:37.810Z,30.90
2023-04-16T08:20:05.895Z,24.23
2023-04-16T08:22:33.719Z,30.65
2023-04-16T08:25:00.637Z,26.10
2023-04-16T08:27:27.469Z,33.85
2023-04-16T08:29:54.319Z,31.88
2023-04-16T08:32:21.181Z,28.27
2023-04-16T08:34:48.080Z,33.03
2023-04-16T08:37:14.980Z,33.20
2023-04-16T08:39:41.838Z,35.38
2023-04-16T08:42:23.628Z,24.60
2023-04-16T08:44:58.268Z,27.30
2023-04-16T08:47:27.790Z,30.20
2023-04-16T08:49:58.931Z,26.70
2023-04-16T08:52:28.367Z,29.27
2023-04-16T08:55:08.791Z,32.67
2023-04-16T08:57:44.039Z,25.40
2023-04-16T09:00:12.168Z,36.93
2023-04-16T09:02:39.637Z,29.67
2023-04-16T09:05:08.313Z,31.42
2023-04-16T09:07:36.534Z,31.80
2023-04-16T09:10:03.602Z,30.85
2023-04-16T09:12:32.314Z,24.38
2023-04-16T09:15:02.909Z,30.25
2023-04-16T09:17:29.815Z,22.48
2023-04-16T09:19:56.687Z,31.27
2023-04-16T09:22:23.442Z,20.60
2023-04-16T09:24:50.398Z,31.70
2023-04-16T09:27:17.946Z,26.83
2023-04-16T09:29:44.881Z,24.77
2023-04-16T09:32:12.414Z,23.85
2023-04-16T09:34:55.710Z,25.35
2023-04-16T09:37:22.626Z,25.90
2023-04-16T09:39:56.771Z,26.98
2023-04-16T09:42:29.535Z,22.77
2023-04-16T09:44:59.378Z,22.45
2023-04-16T09:47:42.853Z,29.60
2023-04-16T09:50:15.825Z,21.65
2023-04-16T09:52:46.133Z,27.98
2023-04-16T09:55:13.418Z,27.55
2023-04-16T09:57:40.423Z,24.23
2023-04-16T10:00:09.472Z,21.98
2023-04-16T10:02:39.052Z,21.02
2023-04-16T10:05:06.571Z,24.60
2023-04-16T10:07:37.627Z,21.58
2023-04-16T10:10:05.416Z,24.20
2023-04-16T10:12:35.663Z,27.45
2023-04-16T10:15:02.605Z,26.25
2023-04-16T10:17:30.416Z,24.85
2023-04-16T10:19:58.550Z,24.10
2023-04-16T10:22:26.893Z,23.88
2023-04-16T10:24:54.781Z,22.02
2023-04-16T10:27:21.990Z,18.50
2023-04-16T10:29:49.626Z,23.33
2023-04-16T10:32:18.616Z,17.23
2023-04-16T10:34:45.972Z,25.13
2023-04-16T10:37:12.975Z,18.45
2023-04-16T10:39:44.648Z,19.98
2023-04-16T10:42:13.172Z,23.15
2023-04-16T10:44:43.466Z,23.65
2023-04-16T10:47:14.002Z,24.85
2023-04-16T10:49:42.412Z,18.63
2023-04-16T10:52:16.896Z,20.42
2023-04-16T10:54:43.858Z,22.50
2023-04-16T10:57:16.388Z,19.52
2023-04-16T10:59:44.374Z,19.65
2023-04-16T11:02:17.756Z,24.63
2023-04-16T11:04:46.680Z,25.48
2023-04-16T11:07:19.512Z,20.80
2023-04-16T11:10:06.851Z,23.42
2023-04-16T11:12:39.276Z,18.00
2023-04-16T11:15:06.534Z,22.50
2023-04-16T11:17:53.600Z,19.55
2023-04-16T11:20:23.214Z,24.13
2023-04-16T11:22:51.909Z,19.90
2023-04-16T11:25:26.638Z,21.25
2023-04-16T11:27:53.902Z,22.48
2023-04-16T11:30:33.919Z,22.08
2023-04-16T11:33:14.224Z,23.27
2023-04-16T11:35:41.536Z,22.20
2023-04-16T11:38:08.579Z,19.10
2023-04-16T11:40:36.385Z,25.55
2023-04-16T11:43:13.251Z,22.52
2023-04-16T11:45:55.232Z,21.50
2023-04-16T11:48:22.097Z,23.30
2023-04-16T11:50:58.053Z,26.30
2023-04-16T11:53:25.137Z,23.95
2023-04-16T11:55:52.021Z,22.33
2023-04-16T11:58:20.133Z,19.23
2023-04-16T12:00:48.976Z,21.30
2023-04-16T12:03:16.031Z,20.35
2023-04-16T12:05:43.189Z,16.48
2023-04-16T12:08:11.745Z,25.13
2023-04-16T12:10:56.608Z,21.60
2023-04-16T12:13:23.469Z,23.67
2023-04-16T12:15:54.845Z,22.02
2023-04-16T12:18:23.795Z,27.92
2023-04-16T12:20:51.429Z,19.15
2023-04-16T12:23:33.706Z,22.23
2023-04-16T12:26:10.624Z,21.02
2023-04-16T12:28:39.399Z,21.35
2023-04-16T12:31:07.551Z,19.33
2023-04-16T12:33:34.516Z,20.75
2023-04-16T12:36:03.608Z,22.38
2023-04-16T12:38:30.624Z,22.45
2023-04-16T12:40:58.419Z,18.73
2023-04-16T12:43:26.088Z,15.70
2023-04-16T12:45:53.341Z,15.55
2023-04-16T12:48:20.353Z,18.15
2023-04-16T12:50:47.426Z,16.67
2023-04-16T12:53:14.490Z,16.70
2023-04-16T12:55:41.681Z,20.70
2023-04-16T12:58:11.862Z,24.80
2023-04-16T13:00:39.947Z,18.70
2023-04-16T13:03:06.915Z,18.58
2023-04-16T13:05:34.420Z,19.27
2023-04-16T13:08:01.230Z,21.45
2023-04-16T13:10:28.187Z,20.92
2023-04-16T13:12:55.055Z,18.15
2023-04-16T13:15:22.000Z,15.70
2023-04-16T13:17:48.863Z,18.90
2023-04-16T13:20:15.901Z,20.95
2023-04-16T13:22:42.792Z,22.55
2023-04-16T13:25:10.001Z,18.55
2023-04-16T13:27:36.960Z,20.95
2023-04-16T13:30:04.018Z,18.40
2023-04-16T13:32:31.262Z,16.73
2023-04-16T13:34:58.110Z,21.58
2023-04-16T13:37:24.981Z,26.05
2023-04-16T13:39:51.780Z,21.55
2023-04-16T13:42:18.607Z,15.07
2023-04-16T13:44:48.874Z,17.42
2023-04-16T13:47:16.098Z,20.25
2023-04-16T13:49:42.924Z,18.40
2023-04-16T13:52:09.710Z,18.63
2023-04-16T13:54:36.509Z,18.77
2023-04-16T13:57:03.410Z,16.88
2023-04-16T13:59:30.380Z,22.25
2023-04-16T14:01:57.694Z,14.35
2023-04-16T14:04:24.611Z,15.95
2023-04-16T14:06:51.658Z,15.80
2023-04-16T14:09:18.664Z,17.08
2023-04-16T14:11:45.543Z,18.92
2023-04-16T14:14:12.364Z,18.08
2023-04-16T14:16:39.254Z,15.00
2023-04-16T14:19:06.151Z,16.77
2023-04-16T14:21:32.977Z,16.05
2023-04-16T14:23:59.747Z,16.77
2023-04-16T14:26:26.594Z,19.27
2023-04-16T14:28:53.500Z,19.98
2023-04-16T14:31:20.654Z,19.95
2023-04-16T14:33:47.470Z,20.70
2023-04-16T14:36:14.409Z,18.08
2023-04-16T14:38:43.213Z,22.25
2023-04-16T14:41:12.136Z,18.35
2023-04-16T14:43:41.270Z,18.33
2023-04-16T14:46:08.347Z,29.60
2023-04-16T14:48:35.314Z,22.80
2023-04-16T14:51:02.216Z,24.50
2023-04-16T14:53:29.308Z,20.15
2023-04-16T14:55:59.136Z,21.95
2023-04-16T14:58:26.522Z,21.63
2023-04-16T15:00:53.622Z,19.88
2023-04-16T15:03:21.055Z,19.40
2023-04-16T15:05:54.786Z,18.80
2023-04-16T15:08:23.054Z,22.70
2023-04-16T15:10:50.783Z,18.30
2023-04-16T15:13:17.774Z,23.42
2023-04-16T15:15:44.754Z,23.42
2023-04-16T15:18:11.676Z,27.55
2023-04-16T15:20:38.612Z,23.48
2023-04-16T15:23:05.412Z,17.58
2023-04-16T15:25:32.285Z,21.38
2023-04-16T15:27:59.494Z,19.30
2023-04-16T15:30:26.407Z,21.65
2023-04-16T15:32:55.033Z,18.17
2023-04-16T15:35:22.031Z,27.73
2023-04-16T15:37:48.956Z,24.65
2023-04-16T15:40:18.748Z,24.58
2023-04-16T15:42:45.657Z,23.33
2023-04-16T15:45:12.490Z,24.73
2023-04-16T15:47:41.646Z,21.10
2023-04-16T15:50:08.994Z,23.30
2023-04-16T15:52:36.458Z,21.85
2023-04-16T15:55:04.298Z,21.35
2023-04-16T15:57:31.404Z,20.73
2023-04-16T16:02:29.727Z,18.75
2023-04-16T16:04:56.778Z,22.05
2023-04-16T16:07:25.190Z,20.70
2023-04-16T16:09:53.110Z,21.83
2023-04-16T16:12:19.996Z,24.73
2023-04-16T16:14:46.843Z,18.98
2023-04-16T16:17:13.812Z,21.05
2023-04-16T16:19:40.734Z,21.60
2023-04-16T16:22:09.324Z,30.25
2023-04-16T16:24:36.292Z,21.00
2023-04-16T16:27:03.246Z,20.02
2023-04-16T16:29:30.098Z,22.63
2023-04-16T16:31:56.930Z,21.92
2023-04-16T16:34:23.832Z,20.08
2023-04-16T16:36:50.706Z,22.35
2023-04-16T16:39:17.511Z,23.90
2023-04-16T16:41:45.062Z,25.92
2023-04-16T16:44:11.866Z,23.88
2023-04-16T16:46:38.706Z,20.65
2023-04-16T16:49:06.946Z,27.45
2023-04-16T16:51:34.185Z,25.02
2023-04-16T16:54:01.088Z,25.88
2023-04-16T16:56:28.179Z,22.10
2023-04-16T16:58:55.012Z,22.60
2023-04-16T17:01:22.231Z,23.95
2023-04-16T17:03:49.180Z,24.92
2023-04-16T17:06:16.216Z,21.48
2023-04-16T17:08:43.037Z,22.00
2023-04-16T17:11:09.849Z,22.48
2023-04-16T17:13:36.797Z,24.60
2023-04-16T17:16:03.815Z,22.40
2023-04-16T17:18:30.773Z,21.67
2023-04-16T17:20:57.654Z,23.27
2023-04-16T17:23:24.462Z,26.77
2023-04-16T17:25:51.392Z,24.67
2023-04-16T17:28:18.201Z,23.90
2023-04-16T17:30:46.154Z,26.52
2023-04-16T17:33:13.066Z,23.50
2023-04-16T17:35:41.080Z,27.40
2023-04-16T17:38:08.034Z,23.77
2023-04-16T17:40:34.840Z,28.25
2023-04-16T17:43:01.616Z,27.15
2023-04-16T17:45:28.384Z,24.83
2023-04-16T17:47:55.459Z,22.27
2023-04-16T17:50:22.501Z,24.30
2023-04-16T17:52:49.294Z,25.75
2023-04-16T17:56:35.065Z,26.48
2023-04-16T17:59:02.220Z,21.77
2023-04-16T18:01:29.074Z,25.83
2023-04-16T18:03:56.176Z,28.60
2023-04-16T18:06:23.280Z,28.73
2023-04-16T18:08:50.172Z,24.27
2023-04-16T18:11:17.065Z,27.40
2023-04-16T18:13:43.809Z,29.23
2023-04-16T18:16:17.496Z,26.25
2023-04-16T18:18:45.098Z,29.17
2023-04-16T18:21:12.281Z,24.65
2023-04-16T18:23:39.085Z,28.52
2023-04-16T18:26:08.487Z,26.45
2023-04-16T18:28:36.098Z,31.10
2023-04-16T18:31:05.611Z,27.42
2023-04-16T18:36:02.576Z,28.98
2023-04-16T18:38:32.744Z,27.55
2023-04-16T18:40:59.781Z,31.60
2023-04-16T18:43:26.616Z,28.45
2023-04-16T18:45:53.608Z,31.90
2023-04-16T18:48:20.508Z,27.17
2023-04-16T18:50:47.407Z,26.85
2023-04-16T18:53:14.362Z,30.58
2023-04-16T18:55:41.185Z,32.92
2023-04-16T18:58:08.046Z,30.63
2023-04-16T19:00:34.942Z,33.88
2023-04-16T19:03:07.150Z,29.23
2023-04-16T19:05:34.151Z,32.22
2023-04-16T19:08:01.433Z,28.83
2023-04-16T19:10:28.358Z,30.83
2023-04-16T19:12:57.075Z,29.02
2023-04-16T19:15:24.269Z,33.53
2023-04-16T19:17:51.185Z,31.75
2023-04-16T19:20:18.251Z,31.08
2023-04-16T19:22:45.136Z,28.48
2023-04-16T19:25:12.105Z,37.25
2023-04-16T19:27:38.988Z,33.92
2023-04-16T19:30:06.773Z,36.95
2023-04-16T19:32:33.824Z,34.55
2023-04-16T19:35:00.819Z,38.28
2023-04-16T19:37:27.622Z,36.83
2023-04-16T19:39:54.957Z,33.83
2023-04-16T19:42:21.796Z,36.70
2023-04-16T19:44:48.652Z,38.10
2023-04-16T19:47:15.430Z,38.42
2023-04-16T19:49:43.658Z,37.30
2023-04-16T19:52:10.487Z,39.65
2023-04-16T19:54:37.662Z,37.53
2023-04-16T19:57:04.605Z,37.85
2023-04-16T19:59:32.267Z,40.22
2023-04-16T20:01:59.112Z,37.92
2023-04-16T20:04:26.298Z,46.58
2023-04-16T20:06:53.398Z,39.08
2023-04-16T20:09:20.239Z,38.72
2023-04-16T20:11:47.389Z,41.33
2023-04-16T20:14:14.274Z,39.45
2023-04-16T20:16:41.271Z,39.10
2023-04-16T20:19:08.971Z,41.65
2023-04-16T20:21:36.102Z,41.75
2023-04-16T20:24:02.988Z,41.60
2023-04-16T20:26:34.192Z,41.00
2023-04-16T20:29:01.330Z,41.15
2023-04-16T20:31:28.269Z,37.20
2023-04-16T20:33:55.664Z,40.10
2023-04-16T20:36:22.448Z,41.08
2023-04-16T20:38:50.774Z,40.03
2023-04-16T20:41:22.470Z,41.63
2023-04-16T20:43:52.919Z,41.60
2023-04-16T20:46:24.343Z,39.78
2023-04-16T20:48:51.911Z,39.53
2023-04-16T20:51:18.745Z,42.38
2023-04-16T20:53:45.702Z,40.45
2023-04-16T20:56:14.893Z,44.85
2023-04-16T20:58:42.695Z,43.10
2023-04-16T21:01:09.839Z,41.33
2023-04-16T21:03:37.234Z,41.90
2023-04-16T21:06:04.396Z,44.92
2023-04-16T21:08:31.270Z,42.22
2023-04-16T21:10:58.349Z,36.63
2023-04-16T21:13:25.207Z,41.58
2023-04-16T21:15:52.238Z,37.72
2023-04-16T21:18:19.066Z,42.03
2023-04-16T21:20:45.992Z,41.90
2023-04-16T21:23:12.923Z,40.50
2023-04-16T21:25:39.868Z,43.47
2023-04-16T21:28:06.781Z,48.90
2023-04-16T21:30:33.612Z,44.85
2023-04-16T21:33:00.513Z,43.10
2023-04-16T21:35:27.418Z,45.28
2023-04-16T21:37:54.181Z,50.25
2023-04-16T21:40:21.142Z,46.38
2023-04-16T21:42:47.980Z,44.47
2023-04-16T21:45:14.934Z,46.10
2023-04-16T21:47:41.880Z,46.05
2023-04-16T21:50:09.014Z,49.08
2023-04-16T21:52:40.570Z,54.70
2023-04-16T21:55:09.482Z,43.17
2023-04-16T21:57:36.710Z,47.85
2023-04-16T22:00:09.247Z,46.50
2023-04-16T22:02:36.475Z,43.47
2023-04-16T22:05:03.571Z,46.33
2023-04-16T22:07:30.614Z,42.88
2023-04-16T22:09:57.822Z,45.63
2023-04-16T22:12:24.673Z,44.35
2023-04-16T22:15:01.867Z,46.38
2023-04-16T22:17:30.216Z,44.45
2023-04-16T22:20:00.723Z,41.72
2023-04-16T22:22:27.549Z,41.88
2023-04-16T22:24:54.697Z,36.85
2023-04-16T22:27:21.718Z,44.78
2023-04-16T22:29:48.480Z,41.40
2023-04-16T22:32:15.620Z,43.05
2023-04-16T22:34:42.513Z,45.20
2023-04-16T22:37:09.354Z,43.17
2023-04-16T22:39:36.133Z,45.92
2023-04-16T22:42:03.094Z,39.28
2023-04-16T22:44:30.102Z,44.75
2023-04-16T22:46:57.005Z,39.78
2023-04-16T22:49:23.880Z,44.38
2023-04-16T22:51:50.889Z,46.63
2023-04-16T22:54:20.231Z,40.20
2023-04-16T22:56:48.750Z,47.45
2023-04-16T22:59:16.185Z,46.38
2023-04-16T23:01:43.094Z,42.40
2023-04-16T23:04:09.987Z,42.83
2023-04-16T23:06:36.777Z,45.78
2023-04-16T23:09:05.272Z,42.65
2023-04-16T23:11:32.124Z,43.22
2023-04-16T23:13:59.084Z,50.95
2023-04-16T23:16:27.383Z,47.88
2023-04-16T23:18:54.445Z,46.90
2023-04-16T23:21:21.333Z,50.00
2023-04-16T23:23:48.226Z,49.08
2023-04-16T23:26:15.530Z,54.80
2023-04-16T23:28:42.482Z,61.50
2023-04-16T23:31:09.384Z,61.63
2023-04-16T23:33:36.313Z,61.55
2023-04-16T23:36:03.259Z,61.53
2023-04-16T23:38:30.137Z,59.83
2023-04-16T23:40:57.059Z,60.70
2023-04-16T23:43:23.846Z,56.42
2023-04-16T23:45:50.700Z,64.63
2023-04-16T23:48:17.684Z,62.42
2023-04-16T23:50:44.576Z,61.35
2023-04-16T23:53:11.578Z,61.50
2023-04-16T23:55:38.444Z,68.05
2023-04-16T23:58:05.323Z,60.72
